Time;durP1;ratioP1;P1;durP2;ratioP2;P2;SDS_P1;SDS_P2;PMS_P1;PMS_P2;Temp;Humidity;BMP_temperature;BMP_pressure;BME280_temperature;BME280_humidity;BME280_pressure;Samples;Min_cycle;Max_cycle;Signal;HPM_P1;HPM_P2
2024/01/21 00:02:14;;;;;;;;;;;0.30;99.90;;;;;;4997286;28;19918;-75
2024/01/21 00:05:00;;;;;;;;;;;0.40;99.90;;;;;;5006537;28;19917;-74
2024/01/21 00:07:45;;;;;;;;;;;0.30;99.90;;;;;;4998391;28;19956;-75
2024/01/21 00:10:31;;;;;;;;;;;0.50;99.90;;;;;;4984577;28;19918;-74
2024/01/21 00:13:17;;;;;;;;;;;0.40;99.90;;;;;;5013172;28;19988;-75
2024/01/21 00:16:03;;;;;;;;;;;0.50;99.90;;;;;;5013562;28;19918;-75
2024/01/21 00:18:49;;;;;;;;;;;0.50;99.90;;;;;;5001469;28;19921;-74
2024/01/21 00:21:35;;;;;;;;;;;0.50;99.90;;;;;;5004995;28;19917;-75
2024/01/21 00:24:21;;;;;;;;;;;0.50;99.90;;;;;;5002862;28;19917;-75
2024/01/21 00:27:06;;;;;;;;;;;0.60;99.90;;;;;;4996004;28;20329;-74
2024/01/21 00:29:52;;;;;;;;;;;0.60;99.90;;;;;;5001398;28;19917;-75
2024/01/21 00:32:38;;;;;;;;;;;0.60;99.90;;;;;;4979506;28;19928;-75
2024/01/21 00:35:24;;;;;;;;;;;0.60;99.90;;;;;;5009495;28;19928;-75
2024/01/21 00:38:11;;;;;;;;;;;0.60;99.90;;;;;;5008513;28;20342;-74
2024/01/21 00:40:56;;;;;;;;;;;0.70;99.90;;;;;;5020536;28;20257;-75
2024/01/21 00:43:42;;;;;;;;;;;0.60;99.90;;;;;;5001068;28;19928;-74
2024/01/21 00:46:29;;;;;;;;;;;0.70;99.90;;;;;;4987755;28;19928;-74
2024/01/21 00:49:15;;;;;;;;;;;0.70;99.90;;;;;;5001595;28;20341;-75
2024/01/21 00:52:00;;;;;;;;;;;0.70;99.90;;;;;;5006612;28;19917;-75
2024/01/21 00:54:46;;;;;;;;;;;0.70;99.90;;;;;;5023273;28;20560;-74
2024/01/21 00:57:32;;;;;;;;;;;0.70;99.90;;;;;;5003043;28;20293;-75
2024/01/21 01:00:19;;;;;;;;;;;0.60;99.90;;;;;;4994064;28;20128;-75
2024/01/21 01:03:05;;;;;;;;;;;0.70;99.90;;;;;;5004559;28;19917;-75
2024/01/21 01:05:51;;;;;;;;;;;0.70;99.20;;;;;;4993674;28;20402;-75
2024/01/21 01:08:37;;;;;;;;;;;0.70;99.10;;;;;;5010804;28;20063;-74
2024/01/21 01:11:24;;;;;;;;;;;0.70;99.10;;;;;;5002710;28;20008;-75
2024/01/21 01:14:10;;;;;;;;;;;0.80;99.00;;;;;;4997368;28;20176;-74
2024/01/21 01:16:56;;;;;;;;;;;0.80;98.70;;;;;;5002746;28;19917;-75
2024/01/21 01:19:42;;;;;;;;;;;0.80;98.80;;;;;;5023525;28;19921;-75
2024/01/21 01:22:28;;;;;;;;;;;0.80;98.80;;;;;;5008518;28;20053;-74
2024/01/21 01:25:14;;;;;;;;;;;0.90;98.50;;;;;;5007843;28;19918;-75
2024/01/21 01:27:59;;;;;;;;;;;0.90;98.40;;;;;;4998194;28;20018;-75
2024/01/21 01:30:46;;;;;;;;;;;0.90;98.40;;;;;;5010574;28;20000;-75
2024/01/21 01:33:32;;;;;;;;;;;0.90;99.10;;;;;;5016986;28;19960;-75
2024/01/21 01:36:18;;;;;;;;;;;0.90;98.60;;;;;;5005935;28;19917;-75
2024/01/21 01:39:04;;;;;;;;;;;0.90;98.40;;;;;;4997208;28;19988;-75
2024/01/21 01:41:50;;;;;;;;;;;0.90;98.30;;;;;;4996828;28;19928;-75
2024/01/21 01:44:40;;;;;;;;;;;0.90;97.80;;;;;;4998523;28;19921;-75
2024/01/21 01:47:26;;;;;;;;;;;0.90;97.80;;;;;;5011175;28;20013;-75
2024/01/21 01:50:12;;;;;;;;;;;1.00;97.70;;;;;;5007198;28;20417;-75
2024/01/21 01:52:59;;;;;;;;;;;1.00;97.50;;;;;;5016939;28;19922;-75
2024/01/21 01:55:45;;;;;;;;;;;1.00;97.20;;;;;;4990799;28;20001;-75
2024/01/21 01:58:31;;;;;;;;;;;0.90;96.90;;;;;;5017301;28;19921;-75
2024/01/21 02:01:17;;;;;;;;;;;0.90;97.00;;;;;;4988946;28;19925;-75
2024/01/21 02:04:04;;;;;;;;;;;1.00;97.20;;;;;;4994977;28;20018;-74
2024/01/21 02:06:52;;;;;;;;;;;1.00;97.40;;;;;;5008709;28;20329;-75
2024/01/21 02:09:37;;;;;;;;;;;1.00;97.50;;;;;;5006617;28;20322;-75
2024/01/21 02:12:23;;;;;;;;;;;0.90;97.80;;;;;;5012520;28;19996;-75
2024/01/21 02:15:10;;;;;;;;;;;0.90;97.60;;;;;;5007163;28;19917;-75
2024/01/21 02:17:55;;;;;;;;;;;0.90;97.90;;;;;;5026575;28;19917;-75
2024/01/21 02:20:41;;;;;;;;;;;0.90;97.60;;;;;;5019146;28;20249;-75
2024/01/21 02:23:27;;;;;;;;;;;0.90;97.70;;;;;;5045310;28;19917;-75
2024/01/21 02:26:13;;;;;;;;;;;0.90;97.50;;;;;;5024581;28;19913;-75
2024/01/21 02:28:59;;;;;;;;;;;0.90;97.50;;;;;;5005612;28;19920;-77
2024/01/21 02:31:47;;;;;;;;;;;0.90;96.90;;;;;;5013428;28;19967;-75
2024/01/21 02:34:33;;;;;;;;;;;0.90;97.50;;;;;;5004919;28;19975;-75
2024/01/21 02:37:19;;;;;;;;;;;0.90;97.10;;;;;;5006347;28;20360;-75
2024/01/21 02:40:05;;;;;;;;;;;0.90;97.10;;;;;;5036185;28;19916;-75
2024/01/21 02:42:51;;;;;;;;;;;0.90;97.10;;;;;;5020548;28;20384;-74
2024/01/21 02:45:37;;;;;;;;;;;0.90;96.60;;;;;;5021874;28;19932;-75
2024/01/21 02:48:23;;;;;;;;;;;0.90;96.10;;;;;;5021132;28;19928;-75
2024/01/21 02:51:12;;;;;;;;;;;0.90;96.00;;;;;;4990570;28;20039;-75
2024/01/21 02:53:57;;;;;;;;;;;0.90;95.60;;;;;;5005491;28;20293;-75
2024/01/21 02:56:43;;;;;;;;;;;0.90;95.50;;;;;;5005066;28;19924;-75
2024/01/21 02:59:29;;;;;;;;;;;1.00;95.20;;;;;;5018887;28;19979;-75
2024/01/21 03:02:15;;;;;;;;;;;0.90;94.80;;;;;;5005363;28;19913;-74
2024/01/21 03:05:01;;;;;;;;;;;1.00;95.30;;;;;;5010308;28;19920;-75
2024/01/21 03:07:48;;;;;;;;;;;0.90;95.10;;;;;;5021824;28;19924;-75
2024/01/21 03:10:34;;;;;;;;;;;1.00;95.00;;;;;;5035467;28;19912;-74
2024/01/21 03:13:22;;;;;;;;;;;1.00;95.00;;;;;;5040337;28;19971;-79
2024/01/21 03:16:08;;;;;;;;;;;1.00;95.50;;;;;;5023369;28;19917;-79
2024/01/21 03:18:54;;;;;;;;;;;1.00;95.60;;;;;;5026762;28;19916;-79
2024/01/21 03:21:39;;;;;;;;;;;1.10;95.80;;;;;;5027313;28;19912;-79
2024/01/21 03:24:25;;;;;;;;;;;1.10;95.40;;;;;;5025693;28;20296;-79
2024/01/21 03:27:13;;;;;;;;;;;1.10;95.20;;;;;;5038480;28;19916;-74
2024/01/21 03:29:59;;;;;;;;;;;1.10;95.00;;;;;;5030757;28;19968;-75
2024/01/21 03:32:45;;;;;;;;;;;1.10;94.90;;;;;;5044734;28;20011;-75
2024/01/21 03:35:31;;;;;;;;;;;1.10;95.10;;;;;;5012957;28;20581;-75
2024/01/21 03:38:19;;;;;;;;;;;1.10;95.00;;;;;;5040046;28;19925;-75
2024/01/21 03:41:04;;;;;;;;;;;1.00;94.90;;;;;;5024652;28;19981;-75
2024/01/21 03:43:50;;;;;;;;;;;1.00;95.10;;;;;;5044605;28;19913;-75
2024/01/21 03:46:36;;;;;;;;;;;1.00;95.50;;;;;;5029928;28;19923;-75
2024/01/21 03:49:22;;;;;;;;;;;1.00;95.20;;;;;;5028545;28;19963;-75
2024/01/21 03:52:08;;;;;;;;;;;1.00;95.10;;;;;;5058099;28;19916;-74
2024/01/21 03:54:54;;;;;;;;;;;0.90;94.80;;;;;;5030036;28;19913;-74
2024/01/21 03:57:40;;;;;;;;;;;0.90;94.40;;;;;;5030683;28;20321;-74
2024/01/21 04:00:25;;;;;;;;;;;0.90;94.20;;;;;;5030589;28;19917;-74
2024/01/21 04:03:11;;;;;;;;;;;1.00;93.40;;;;;;5042076;28;19917;-75
2024/01/21 04:05:57;;;;;;;;;;;1.00;94.00;;;;;;5043825;28;19925;-75
2024/01/21 04:08:43;;;;;;;;;;;1.00;93.90;;;;;;5035235;28;19995;-76
2024/01/21 04:11:29;;;;;;;;;;;1.10;94.30;;;;;;5042913;28;19913;-75
2024/01/21 04:14:15;;;;;;;;;;;1.10;94.30;;;;;;5043179;28;19962;-75
2024/01/21 04:17:01;;;;;;;;;;;1.10;94.80;;;;;;5022238;28;19913;-75
2024/01/21 04:19:47;;;;;;;;;;;1.10;94.20;;;;;;5043249;28;19920;-75
2024/01/21 04:22:32;;;;;;;;;;;1.10;94.00;;;;;;5041422;28;19916;-75
2024/01/21 04:25:18;;;;;;;;;;;1.00;93.70;;;;;;5022399;28;19917;-75
2024/01/21 04:28:04;;;;;;;;;;;1.00;93.30;;;;;;5038430;28;20241;-75
2024/01/21 04:30:52;;;;;;;;;;;1.00;93.40;;;;;;5028175;28;19974;-75
2024/01/21 04:33:40;;;;;;;;;;;1.00;93.40;;;;;;5020449;28;20004;-75
2024/01/21 04:36:26;;;;;;;;;;;0.90;93.70;;;;;;5015339;28;20011;-75
2024/01/21 04:39:14;;;;;;;;;;;0.90;93.80;;;;;;5017809;28;19920;-74
2024/01/21 04:41:59;;;;;;;;;;;0.90;94.10;;;;;;5027349;28;19913;-75
2024/01/21 04:44:45;;;;;;;;;;;0.90;93.90;;;;;;5026826;28;19916;-75
2024/01/21 04:47:32;;;;;;;;;;;0.90;93.90;;;;;;5008519;28;19952;-74
2024/01/21 04:50:19;;;;;;;;;;;0.90;93.60;;;;;;5035083;28;19925;-75
2024/01/21 04:53:05;;;;;;;;;;;0.90;93.70;;;;;;5040247;28;19913;-75
2024/01/21 04:55:51;;;;;;;;;;;0.90;93.20;;;;;;5035546;28;19913;-74
2024/01/21 04:58:36;;;;;;;;;;;1.10;93.10;;;;;;5009367;28;19921;-75
2024/01/21 05:01:23;;;;;;;;;;;1.00;92.80;;;;;;5023785;28;19916;-74
2024/01/21 05:04:09;;;;;;;;;;;0.90;92.60;;;;;;5007285;28;19977;-74
2024/01/21 05:06:55;;;;;;;;;;;1.00;92.50;;;;;;5054577;28;20245;-75
2024/01/21 05:09:41;;;;;;;;;;;1.00;92.20;;;;;;5044797;28;19928;-75
2024/01/21 05:12:26;;;;;;;;;;;1.00;91.70;;;;;;5019481;28;20483;-75
2024/01/21 05:15:12;;;;;;;;;;;1.00;92.00;;;;;;5023638;28;19979;-75
2024/01/21 05:17:58;;;;;;;;;;;1.00;92.30;;;;;;5037009;28;19994;-75
2024/01/21 05:20:44;;;;;;;;;;;1.10;92.60;;;;;;5040547;28;20241;-75
2024/01/21 05:23:30;;;;;;;;;;;1.00;92.20;;;;;;5039240;28;19912;-75
2024/01/21 05:26:16;;;;;;;;;;;1.00;93.10;;;;;;5007516;28;20249;-75
2024/01/21 05:29:02;;;;;;;;;;;1.00;93.30;;;;;;5040703;28;20315;-75
2024/01/21 05:31:48;;;;;;;;;;;1.00;93.00;;;;;;5039291;28;19917;-75
2024/01/21 05:34:34;;;;;;;;;;;1.00;92.90;;;;;;5024041;28;20298;-75
2024/01/21 05:37:20;;;;;;;;;;;1.00;92.90;;;;;;5025582;28;20263;-75
2024/01/21 05:40:08;;;;;;;;;;;1.00;92.70;;;;;;5045153;28;19932;-74
2024/01/21 05:42:54;;;;;;;;;;;1.10;92.50;;;;;;5031754;28;19917;-75
2024/01/21 05:45:40;;;;;;;;;;;1.10;92.50;;;;;;5036028;28;19913;-75
2024/01/21 05:48:26;;;;;;;;;;;1.10;92.60;;;;;;5020133;28;19913;-75
2024/01/21 05:51:12;;;;;;;;;;;1.10;92.20;;;;;;5023410;28;19974;-75
2024/01/21 05:53:57;;;;;;;;;;;1.10;91.70;;;;;;5016173;28;20256;-75
2024/01/21 05:56:43;;;;;;;;;;;1.20;91.90;;;;;;5015234;28;19962;-75
2024/01/21 05:59:29;;;;;;;;;;;1.20;92.00;;;;;;4996126;28;20598;-74
2024/01/21 06:02:15;;;;;;;;;;;1.20;91.40;;;;;;5051630;28;19912;-74
2024/01/21 06:05:01;;;;;;;;;;;1.20;91.60;;;;;;5038419;28;20211;-74
2024/01/21 06:07:47;;;;;;;;;;;1.30;91.30;;;;;;5012902;28;19988;-74
2024/01/21 06:10:33;;;;;;;;;;;1.30;91.40;;;;;;5034597;28;19940;-74
2024/01/21 06:13:18;;;;;;;;;;;1.30;91.30;;;;;;5030894;28;19944;-74
2024/01/21 06:16:04;;;;;;;;;;;1.30;90.70;;;;;;5038571;28;19994;-75
2024/01/21 06:18:50;;;;;;;;;;;1.40;91.20;;;;;;5040305;28;19920;-74
2024/01/21 06:21:45;;;;;;;;;;;1.40;91.70;;;;;;5033634;28;20345;-74
2024/01/21 06:24:33;;;;;;;;;;;1.40;91.80;;;;;;5024783;28;20038;-74
2024/01/21 06:27:19;;;;;;;;;;;1.40;92.00;;;;;;5028737;28;19917;-74
2024/01/21 06:30:14;;;;;;;;;;;1.40;92.40;;;;;;5038706;28;19924;-74
2024/01/21 06:33:00;;;;;;;;;;;1.40;92.10;;;;;;5028912;28;19917;-75
2024/01/21 06:35:46;;;;;;;;;;;1.50;92.60;;;;;;5037381;28;19917;-75
2024/01/21 06:38:32;;;;;;;;;;;1.40;92.30;;;;;;5040047;28;20261;-75
2024/01/21 06:41:17;;;;;;;;;;;1.50;92.40;;;;;;5042324;28;19927;-74
2024/01/21 06:44:03;;;;;;;;;;;1.50;91.10;;;;;;5058993;28;20591;-74
2024/01/21 06:46:49;;;;;;;;;;;1.50;90.00;;;;;;5038050;28;19923;-74
2024/01/21 06:49:35;;;;;;;;;;;1.60;89.10;;;;;;5038806;28;19916;-75
2024/01/21 06:52:23;;;;;;;;;;;1.80;85.40;;;;;;5019197;28;19928;-74
2024/01/21 06:55:09;;;;;;;;;;;1.90;84.00;;;;;;5030064;28;19916;-75
2024/01/21 06:57:55;;;;;;;;;;;2.10;81.10;;;;;;5019058;28;19917;-74
2024/01/21 07:00:41;;;;;;;;;;;2.30;78.30;;;;;;5046415;28;20646;-74
2024/01/21 07:03:27;;;;;;;;;;;2.40;80.90;;;;;;5024838;28;20002;-75
2024/01/21 07:06:13;;;;;;;;;;;2.50;78.70;;;;;;5030696;28;19929;-78
2024/01/21 07:08:59;;;;;;;;;;;2.60;78.50;;;;;;5029146;28;20351;-74
2024/01/21 07:11:46;;;;;;;;;;;2.60;78.90;;;;;;5036188;28;19916;-74
2024/01/21 07:14:34;;;;;;;;;;;2.70;79.60;;;;;;5029066;28;20424;-74
2024/01/21 07:17:21;;;;;;;;;;;2.70;80.90;;;;;;5053902;28;19916;-78
2024/01/21 07:20:10;;;;;;;;;;;2.70;80.80;;;;;;5019994;28;19928;-78
2024/01/21 07:22:56;;;;;;;;;;;2.80;80.40;;;;;;5007934;28;19919;-78
2024/01/21 07:25:42;;;;;;;;;;;2.80;80.60;;;;;;5038009;28;20488;-78
2024/01/21 07:28:28;;;;;;;;;;;2.80;80.40;;;;;;5014029;28;20006;-77
2024/01/21 07:31:14;;;;;;;;;;;2.80;79.50;;;;;;5051193;28;19912;-78
2024/01/21 07:34:00;;;;;;;;;;;2.90;78.00;;;;;;5025590;28;20264;-78
2024/01/21 07:36:46;;;;;;;;;;;3.10;71.20;;;;;;5024705;28;19920;-78
2024/01/21 07:39:32;;;;;;;;;;;3.20;71.00;;;;;;5024943;28;19975;-78
2024/01/21 07:42:17;;;;;;;;;;;3.40;65.90;;;;;;5039014;28;20018;-77
2024/01/21 07:45:04;;;;;;;;;;;3.70;65.10;;;;;;5031321;28;19913;-76
2024/01/21 07:47:50;;;;;;;;;;;3.80;64.10;;;;;;5039529;28;19913;-76
2024/01/21 07:50:36;;;;;;;;;;;3.90;60.60;;;;;;5026494;28;19963;-76
2024/01/21 07:53:22;;;;;;;;;;;4.00;61.40;;;;;;5020060;28;19923;-76
2024/01/21 07:56:08;;;;;;;;;;;4.10;61.40;;;;;;5017906;28;19917;-77
2024/01/21 07:58:54;;;;;;;;;;;4.20;60.80;;;;;;5032000;28;20645;-76
2024/01/21 08:01:40;;;;;;;;;;;4.30;59.60;;;;;;5023827;28;19928;-76
2024/01/21 08:04:27;;;;;;;;;;;4.30;59.00;;;;;;5019136;28;19972;-76
2024/01/21 08:07:13;;;;;;;;;;;4.40;58.90;;;;;;5019995;28;19992;-77
2024/01/21 08:09:59;;;;;;;;;;;4.40;60.30;;;;;;5030374;28;20591;-77
2024/01/21 08:12:45;;;;;;;;;;;4.50;58.10;;;;;;5048301;28;19921;-77
2024/01/21 08:15:31;;;;;;;;;;;4.50;58.30;;;;;;5016810;28;19923;-77
2024/01/21 08:18:18;;;;;;;;;;;4.60;58.20;;;;;;5016067;28;19917;-76
2024/01/21 08:21:04;;;;;;;;;;;4.60;58.90;;;;;;5021493;28;19913;-76
2024/01/21 08:23:50;;;;;;;;;;;4.70;56.30;;;;;;5008416;28;19917;-77
2024/01/21 08:26:35;;;;;;;;;;;4.70;56.30;;;;;;5035869;28;19921;-77
2024/01/21 08:29:22;;;;;;;;;;;4.80;55.90;;;;;;5041178;28;19995;-77
2024/01/21 08:32:08;;;;;;;;;;;4.90;55.30;;;;;;5027711;28;19916;-76
2024/01/21 08:34:54;;;;;;;;;;;5.00;55.30;;;;;;5056963;28;19973;-76
2024/01/21 08:37:41;;;;;;;;;;;5.00;54.90;;;;;;5028168;28;20325;-76
2024/01/21 08:40:27;;;;;;;;;;;5.00;55.50;;;;;;5014994;28;19982;-76
2024/01/21 08:43:13;;;;;;;;;;;5.00;54.70;;;;;;5040619;28;20230;-76
2024/01/21 08:45:59;;;;;;;;;;;5.10;53.80;;;;;;5038477;28;19913;-76
2024/01/21 08:48:45;;;;;;;;;;;5.20;53.20;;;;;;5043367;28;19927;-76
2024/01/21 08:51:31;;;;;;;;;;;5.20;54.70;;;;;;5028079;28;19912;-76
2024/01/21 08:54:17;;;;;;;;;;;5.10;54.90;;;;;;5042074;28;20351;-76
2024/01/21 08:57:03;;;;;;;;;;;5.20;56.10;;;;;;5028526;28;20265;-77
2024/01/21 08:59:51;;;;;;;;;;;5.10;55.90;;;;;;5016135;28;19920;-78
2024/01/21 09:02:36;;;;;;;;;;;5.20;54.50;;;;;;5036207;28;19917;-78
2024/01/21 09:05:22;;;;;;;;;;;5.20;54.50;;;;;;5027570;28;20024;-78
2024/01/21 09:08:08;;;;;;;;;;;5.20;54.50;;;;;;5028162;28;19925;-78
2024/01/21 09:10:54;;;;;;;;;;;5.20;54.10;;;;;;5013717;28;19927;-78
2024/01/21 09:13:40;;;;;;;;;;;5.20;53.30;;;;;;5021903;28;20257;-78
2024/01/21 09:16:26;;;;;;;;;;;5.20;54.50;;;;;;5027472;28;20388;-78
2024/01/21 09:19:13;;;;;;;;;;;5.20;55.00;;;;;;5040512;28;19920;-77
2024/01/21 09:21:59;;;;;;;;;;;5.20;55.20;;;;;;5027973;28;20252;-78
2024/01/21 09:24:47;;;;;;;;;;;5.20;55.30;;;;;;5033400;28;19917;-78
2024/01/21 09:27:33;;;;;;;;;;;5.20;56.30;;;;;;5041198;28;19924;-78
2024/01/21 09:30:20;;;;;;;;;;;5.10;55.10;;;;;;5027252;28;19913;-77
2024/01/21 09:33:06;;;;;;;;;;;5.10;55.80;;;;;;5026265;28;19923;-78
2024/01/21 09:35:52;;;;;;;;;;;5.10;57.50;;;;;;5021344;28;19916;-78
2024/01/21 09:38:38;;;;;;;;;;;5.00;57.10;;;;;;5039946;28;20034;-78
2024/01/21 09:41:37;;;;;;;;;;;5.10;57.70;;;;;;5041645;28;19992;-78
2024/01/21 09:44:27;;;;;;;;;;;5.00;56.70;;;;;;5034669;28;19914;-78
2024/01/21 09:47:13;;;;;;;;;;;5.00;58.00;;;;;;5039408;28;19917;-78
2024/01/21 09:50:01;;;;;;;;;;;5.00;58.40;;;;;;5054933;28;19912;-77
2024/01/21 09:52:47;;;;;;;;;;;5.00;58.50;;;;;;5036882;28;19921;-77
2024/01/21 09:55:33;;;;;;;;;;;5.00;58.40;;;;;;5028110;28;19928;-78
2024/01/21 09:58:19;;;;;;;;;;;4.90;58.70;;;;;;5040947;28;19913;-77
2024/01/21 10:01:05;;;;;;;;;;;4.90;59.40;;;;;;5024628;28;19912;-77
2024/01/21 10:03:51;;;;;;;;;;;4.90;59.60;;;;;;5024517;28;19912;-77
2024/01/21 10:06:37;;;;;;;;;;;4.90;60.30;;;;;;5020332;28;19932;-76
2024/01/21 10:09:23;;;;;;;;;;;4.90;59.90;;;;;;5008067;28;19913;-77
2024/01/21 10:12:09;;;;;;;;;;;4.90;60.50;;;;;;5024347;28;20340;-76
2024/01/21 10:14:56;;;;;;;;;;;4.90;61.00;;;;;;5025829;28;19912;-76
2024/01/21 10:17:43;;;;;;;;;;;4.90;61.60;;;;;;5038156;28;19991;-77
2024/01/21 10:20:29;;;;;;;;;;;4.90;61.90;;;;;;5039788;28;19951;-77
2024/01/21 10:23:14;;;;;;;;;;;4.90;62.60;;;;;;5026647;28;19913;-77
2024/01/21 10:26:00;;;;;;;;;;;4.90;63.40;;;;;;5035495;28;19913;-77
2024/01/21 10:28:46;;;;;;;;;;;4.80;63.30;;;;;;5039264;28;19928;-77
2024/01/21 10:31:33;;;;;;;;;;;4.80;63.80;;;;;;5017340;28;19952;-76
2024/01/21 10:34:19;;;;;;;;;;;4.80;64.30;;;;;;5040051;28;20317;-76
2024/01/21 10:37:06;;;;;;;;;;;4.80;64.00;;;;;;5029516;28;19917;-75
2024/01/21 10:39:53;;;;;;;;;;;4.80;64.90;;;;;;5038905;28;19921;-76
2024/01/21 10:42:39;;;;;;;;;;;4.80;65.00;;;;;;5023305;28;19979;-76
2024/01/21 10:45:25;;;;;;;;;;;4.70;64.90;;;;;;5038906;28;20324;-75
2024/01/21 10:48:14;;;;;;;;;;;4.70;65.20;;;;;;5035120;28;19917;-75
2024/01/21 10:51:00;;;;;;;;;;;4.70;65.60;;;;;;5025346;28;19921;-74
2024/01/21 10:53:46;;;;;;;;;;;4.70;65.70;;;;;;5033820;28;19913;-74
2024/01/21 10:56:32;;;;;;;;;;;4.70;66.10;;;;;;5024300;28;19916;-75
2024/01/21 10:59:18;;;;;;;;;;;4.60;66.20;;;;;;5032137;28;19928;-74
2024/01/21 11:02:04;;;;;;;;;;;4.70;66.10;;;;;;5024203;28;19952;-75
2024/01/21 11:04:50;;;;;;;;;;;4.70;66.80;;;;;;5037127;28;20322;-75
2024/01/21 11:07:36;;;;;;;;;;;4.60;66.90;;;;;;5038609;28;19948;-74
2024/01/21 11:10:22;;;;;;;;;;;4.60;66.90;;;;;;5024486;28;19917;-75
2024/01/21 11:13:08;;;;;;;;;;;4.60;66.80;;;;;;5023444;28;20552;-74
2024/01/21 11:15:55;;;;;;;;;;;4.60;66.90;;;;;;5045637;28;19974;-75
2024/01/21 11:18:41;;;;;;;;;;;4.60;67.10;;;;;;5030691;28;20014;-78
2024/01/21 11:21:30;;;;;;;;;;;4.60;67.90;;;;;;5018395;28;20307;-78
2024/01/21 11:24:16;;;;;;;;;;;4.70;70.60;;;;;;5033067;28;19996;-77
2024/01/21 11:27:02;;;;;;;;;;;4.80;69.70;;;;;;5041579;28;19943;-74
2024/01/21 11:29:48;;;;;;;;;;;4.70;68.20;;;;;;5009655;28;19964;-74
2024/01/21 11:32:34;;;;;;;;;;;4.60;68.20;;;;;;5015682;28;20340;-76
2024/01/21 11:35:20;;;;;;;;;;;4.50;68.90;;;;;;5029841;28;19917;-78
2024/01/21 11:38:07;;;;;;;;;;;4.40;68.70;;;;;;5024403;28;19917;-77
2024/01/21 11:41:00;;;;;;;;;;;4.40;69.70;;;;;;5033694;28;20027;-76
2024/01/21 11:43:46;;;;;;;;;;;4.40;69.80;;;;;;5035975;28;20003;-77
2024/01/21 11:46:33;;;;;;;;;;;4.30;70.10;;;;;;5035304;28;20384;-77
2024/01/21 11:49:19;;;;;;;;;;;4.20;70.60;;;;;;5034636;28;19927;-75
2024/01/21 11:52:05;;;;;;;;;;;4.20;70.70;;;;;;5015253;28;20317;-75
2024/01/21 11:54:51;;;;;;;;;;;4.10;71.30;;;;;;5038236;28;19913;-75
2024/01/21 11:57:37;;;;;;;;;;;4.10;71.60;;;;;;5055841;28;19916;-75
2024/01/21 12:00:23;;;;;;;;;;;4.10;72.00;;;;;;5031913;28;19920;-75
2024/01/21 12:03:09;;;;;;;;;;;4.10;72.40;;;;;;5031086;28;19916;-74
2024/01/21 12:05:55;;;;;;;;;;;4.00;72.80;;;;;;5018472;28;20021;-76
2024/01/21 12:08:44;;;;;;;;;;;4.00;72.80;;;;;;5040222;28;19913;-76
2024/01/21 12:11:30;;;;;;;;;;;4.00;73.00;;;;;;5032316;28;19940;-76
2024/01/21 12:14:16;;;;;;;;;;;4.00;73.20;;;;;;5029658;28;19995;-76
2024/01/21 12:17:03;;;;;;;;;;;4.10;74.60;;;;;;5019452;28;19928;-74
2024/01/21 12:19:49;;;;;;;;;;;4.00;73.80;;;;;;5025532;28;20016;-74
2024/01/21 12:22:39;;;;;;;;;;;4.00;74.00;;;;;;5016195;28;19920;-75
2024/01/21 12:25:25;;;;;;;;;;;4.00;74.90;;;;;;5034993;28;19928;-74
2024/01/21 12:28:12;;;;;;;;;;;4.10;75.10;;;;;;5040647;28;20012;-74
2024/01/21 12:30:58;;;;;;;;;;;4.10;75.50;;;;;;5032439;28;19927;-75
2024/01/21 12:33:44;;;;;;;;;;;4.20;76.10;;;;;;5039777;28;20372;-75
2024/01/21 12:36:30;;;;;;;;;;;4.20;76.90;;;;;;5039967;28;20353;-75
2024/01/21 12:39:16;;;;;;;;;;;4.30;77.10;;;;;;5036507;28;19920;-75
2024/01/21 12:42:02;;;;;;;;;;;4.30;77.70;;;;;;5034018;28;20393;-75
2024/01/21 12:44:48;;;;;;;;;;;4.20;78.30;;;;;;5031510;28;19920;-74
2024/01/21 12:47:34;;;;;;;;;;;4.20;79.30;;;;;;5039366;28;19990;-75
2024/01/21 12:50:21;;;;;;;;;;;4.20;80.10;;;;;;5023980;28;19921;-75
2024/01/21 12:53:07;;;;;;;;;;;4.20;80.90;;;;;;5017009;28;19924;-75
2024/01/21 12:55:53;;;;;;;;;;;4.20;81.90;;;;;;5021707;28;19917;-75
2024/01/21 12:58:39;;;;;;;;;;;4.20;82.60;;;;;;5021963;28;20301;-74
2024/01/21 13:01:30;;;;;;;;;;;4.20;83.20;;;;;;5024553;28;19921;-74
2024/01/21 13:04:18;;;;;;;;;;;4.20;83.70;;;;;;5019702;28;19928;-74
2024/01/21 13:07:04;;;;;;;;;;;4.20;84.40;;;;;;5039310;28;19932;-74
2024/01/21 13:09:50;;;;;;;;;;;4.20;84.80;;;;;;5016848;28;19923;-74
2024/01/21 13:12:36;;;;;;;;;;;4.20;85.50;;;;;;5029106;28;19948;-75
2024/01/21 13:15:22;;;;;;;;;;;4.20;85.80;;;;;;5016719;28;19917;-74
2024/01/21 13:18:08;;;;;;;;;;;4.20;86.50;;;;;;5041293;28;19917;-74
2024/01/21 13:20:54;;;;;;;;;;;4.20;87.00;;;;;;5045288;28;19920;-76
2024/01/21 13:23:40;;;;;;;;;;;4.20;87.40;;;;;;5011746;28;20405;-74
2024/01/21 13:26:26;;;;;;;;;;;4.20;88.00;;;;;;5054149;28;19924;-74
2024/01/21 13:32:27;;;;;;;;;;;4.10;90.40;;;;;;4998056;28;19913;-76
2024/01/21 13:35:13;;;;;;;;;;;4.10;90.90;;;;;;5035939;28;19917;-75
2024/01/21 13:38:02;;;;;;;;;;;4.10;91.70;;;;;;5035961;28;19923;-76
2024/01/21 13:40:48;;;;;;;;;;;4.20;92.00;;;;;;5024625;28;20244;-74
2024/01/21 13:43:35;;;;;;;;;;;4.10;91.50;;;;;;5032123;28;19959;-73
2024/01/21 13:46:21;;;;;;;;;;;4.10;92.70;;;;;;5033852;28;20000;-73
2024/01/21 13:49:10;;;;;;;;;;;4.10;93.60;;;;;;5020621;28;19917;-74
2024/01/21 13:51:56;;;;;;;;;;;4.10;93.50;;;;;;5031922;28;19923;-74
2024/01/21 13:54:42;;;;;;;;;;;4.10;93.70;;;;;;5025146;28;19913;-74
2024/01/21 13:57:28;;;;;;;;;;;4.10;93.90;;;;;;5023964;28;20349;-77
2024/01/21 14:00:14;;;;;;;;;;;4.10;94.40;;;;;;5030384;28;19917;-77
2024/01/21 14:03:01;;;;;;;;;;;4.10;94.70;;;;;;5020578;28;20003;-77
2024/01/21 14:05:47;;;;;;;;;;;4.10;95.10;;;;;;5048211;28;20357;-76
2024/01/21 14:08:33;;;;;;;;;;;4.20;96.50;;;;;;5032416;28;20261;-77
2024/01/21 14:11:20;;;;;;;;;;;4.30;96.30;;;;;;5016294;28;19920;-74
2024/01/21 14:14:06;;;;;;;;;;;4.30;96.90;;;;;;5032376;28;20298;-73
2024/01/21 14:16:52;;;;;;;;;;;4.50;97.50;;;;;;5024827;28;19967;-74
2024/01/21 14:19:42;;;;;;;;;;;4.60;97.20;;;;;;5014001;28;19931;-74
2024/01/21 14:22:27;;;;;;;;;;;4.60;97.90;;;;;;5024695;28;19936;-74
2024/01/21 14:25:16;;;;;;;;;;;4.60;98.80;;;;;;5038988;28;19917;-74
2024/01/21 14:28:02;;;;;;;;;;;4.50;99.40;;;;;;5038406;28;19924;-74
2024/01/21 14:30:49;;;;;;;;;;;4.40;99.90;;;;;;5015429;28;20000;-76
2024/01/21 14:33:35;;;;;;;;;;;4.40;99.90;;;;;;5018338;28;19921;-78
2024/01/21 14:36:21;;;;;;;;;;;4.40;99.90;;;;;;5024068;28;19927;-77
2024/01/21 14:39:07;;;;;;;;;;;4.40;99.90;;;;;;5024431;28;19924;-75
2024/01/21 14:41:53;;;;;;;;;;;4.40;99.90;;;;;;5030392;28;20289;-74
2024/01/21 14:44:42;;;;;;;;;;;4.30;99.90;;;;;;5041773;28;19959;-74
2024/01/21 14:47:31;;;;;;;;;;;4.40;99.90;;;;;;5037846;28;19928;-74
2024/01/21 14:50:16;;;;;;;;;;;4.30;99.90;;;;;;5024108;28;19927;-74
2024/01/21 14:53:02;;;;;;;;;;;4.30;99.90;;;;;;5043723;28;19927;-74
2024/01/21 14:55:48;;;;;;;;;;;4.30;99.90;;;;;;5034153;28;19920;-74
2024/01/21 14:58:34;;;;;;;;;;;4.40;99.90;;;;;;5007677;28;19928;-74
2024/01/21 15:01:20;;;;;;;;;;;4.30;99.90;;;;;;5023869;28;19942;-75
2024/01/21 15:04:06;;;;;;;;;;;4.30;99.90;;;;;;5050509;28;19913;-77
2024/01/21 15:06:52;;;;;;;;;;;4.20;99.90;;;;;;5049868;28;19956;-77
2024/01/21 15:09:38;;;;;;;;;;;4.10;99.90;;;;;;5038080;28;19932;-75
2024/01/21 15:12:24;;;;;;;;;;;4.10;99.90;;;;;;5038526;28;19917;-77
2024/01/21 15:15:16;;;;;;;;;;;4.20;99.90;;;;;;5024632;28;19917;-75
2024/01/21 15:18:02;;;;;;;;;;;4.20;99.90;;;;;;5039391;28;19975;-74
2024/01/21 15:20:48;;;;;;;;;;;4.10;99.90;;;;;;5020855;28;19924;-76
2024/01/21 15:23:34;;;;;;;;;;;4.20;99.90;;;;;;5042705;28;19916;-74
2024/01/21 15:26:30;;;;;;;;;;;4.20;99.90;;;;;;5019650;28;19913;-78
2024/01/21 15:32:42;;;;;;;;;;;4.10;99.90;;;;;;5003911;28;20320;-75
2024/01/21 15:35:28;;;;;;;;;;;4.20;99.90;;;;;;5028710;28;19921;-78
2024/01/21 15:38:14;;;;;;;;;;;4.20;99.90;;;;;;5025201;28;20629;-78
2024/01/21 15:41:00;;;;;;;;;;;4.10;99.90;;;;;;5038999;28;19917;-76
2024/01/21 15:43:46;;;;;;;;;;;4.20;99.90;;;;;;5032164;28;19917;-74
2024/01/21 15:46:32;;;;;;;;;;;4.20;99.90;;;;;;5036932;28;19960;-75
2024/01/21 15:49:18;;;;;;;;;;;4.20;99.90;;;;;;5018765;28;19967;-75
2024/01/21 15:52:04;;;;;;;;;;;4.10;99.90;;;;;;5029199;28;19928;-74
2024/01/21 15:54:51;;;;;;;;;;;4.10;99.90;;;;;;5034315;28;20666;-77
2024/01/21 15:57:37;;;;;;;;;;;4.10;99.90;;;;;;5048601;28;19925;-77
2024/01/21 16:00:31;;;;;;;;;;;4.10;99.90;;;;;;5018362;28;19921;-75
2024/01/21 16:03:16;;;;;;;;;;;4.00;99.90;;;;;;5020028;28;20000;-75
2024/01/21 16:06:02;;;;;;;;;;;4.00;99.90;;;;;;5040174;28;19924;-77
2024/01/21 16:08:48;;;;;;;;;;;4.00;99.90;;;;;;5026010;28;19928;-75
2024/01/21 16:11:34;;;;;;;;;;;4.00;99.90;;;;;;5019935;28;19913;-74
2024/01/21 16:14:23;;;;;;;;;;;4.00;99.90;;;;;;5026247;28;19956;-75
2024/01/21 16:17:10;;;;;;;;;;;3.90;99.90;;;;;;5020628;28;19932;-75
2024/01/21 16:19:55;;;;;;;;;;;3.90;99.90;;;;;;5012495;28;19921;-77
2024/01/21 16:22:41;;;;;;;;;;;3.90;99.90;;;;;;5013569;28;19975;-74
2024/01/21 16:25:27;;;;;;;;;;;3.90;99.90;;;;;;5017914;28;19913;-75
2024/01/21 16:28:13;;;;;;;;;;;3.90;99.90;;;;;;5019489;28;19925;-75
2024/01/21 16:30:59;;;;;;;;;;;3.90;99.90;;;;;;5002407;28;20246;-74